Tiempo atmosférico en la estación meteorológica de Carmona, Sevilla (50 m.)



Fecha
DESCASC
Temp. máxima en grados centígrados (hora)
DESCASC
Temp. mínima en grados centígrados (hora)
DESCASC
Temp. media en grados centígrados
DESCASC
Racha de viento máxima en m/sg (hora)
DESCASC
Velocidad máxima media en intervalos de 10 minutos(hora)
DESCASC
Precipitaciones diarias en mm
DESCASC
Precipitaciones de 00:00 a 06:00 en mm
DESCASC
Precipitaciones de 06:00 a 12:00 en mm
DESCASC
Precipitaciones de 12:00 a 18:00 en mm
DESCASC
Precipitaciones de 18:00 a 24:00 en mm
DESCASC
05-04-2020 22.5 (17:00) 9.3 (08:00) 15.9 10.83 (18:40) 6.94 (17:10) 0 0 0 0 0
04-04-2020 20.3 (14:20) 9.4 (08:00) 14.8 10 (09:30) 6.39 (09:30) 0.2 0 0 0.2 0
03-04-2020 21.4 (17:30) 7.5 (05:50) 14.4 7.22 (16:10) 4.17 (16:50) 0.2 0 0.2 0 0
02-04-2020 16.7 (19:30) 9.3 (00:00) 13 10.56 (00:10) 5.28 (15:20) 11.4 11.4 0 0 0
01-04-2020 17 (15:20) 8.9 (00:00) 12.9 10.83 (16:10) 7.22 (16:10) 2.6 0 0.2 0 2.4
31-03-2020 18.6 (14:40) 11.4 (00:00) 15 12.78 (14:20) 8.61 (15:30) 17.4 12.8 3 1.6 0
30-03-2020 18.7 (15:30) 9.9 (00:00) 14.3 12.22 (16:20) 8.06 (16:20) 5.8 0 0 2 3.8
29-03-2020 21.1 (16:30) 7.6 (00:00) 14.4 5.28 (21:20) 3.33 (21:20) 0 0 0 0 0
28-03-2020 21 (16:30) 7.3 (00:00) 14.2 10 (09:20) 6.39 (09:30) 0 0 0 0 0
27-03-2020 19 (17:40) 7.8 (00:00) 13.4 7.5 (15:20) 4.17 (14:10) 0 0 0 0 0
26-03-2020 24.2 (17:10) 12.5 (00:00) 18.4 9.72 (17:40) 6.39 (18:20) 0 0 0 0 0
25-03-2020 20.7 (17:30) 12.1 (00:00) 16.4 12.22 (20:00) 8.33 (20:00) 0 0 0 0 0
24-03-2020 21.1 (15:40) 8.8 (00:00) 15 12.22 (12:20) 8.61 (12:40) 0.6 0.6 0 0 0
23-03-2020 19.4 (17:10) 8.5 (00:00) 13.9 11.67 (17:40) 7.78 (17:40) 0 0 0 0 0
22-03-2020 17 (16:40) 9.2 (00:00) 13.1 6.94 (17:50) 4.44 (17:50) 4.6 3.6 1 0 0
21-03-2020 14.9 (12:00) 8.7 (00:00) 11.8 15 (16:30) 8.61 (16:30) 18 10.8 0 6.4 0.8
20-03-2020 21.2 (16:40) 12.2 (00:00) 16.7 10.28 (22:10) 5.56 (22:10) 1.6 0 0 0 1.6
19-03-2020 22.9 (15:00) 12.8 (00:00) 17.8 10.56 (15:10) 7.22 (14:40) 0 0 0 0 0
18-03-2020 24.5 (16:10) 11 (00:00) 17.8 13.33 (10:30) 8.89 (10:30) 0 0 0 0 0
17-03-2020 -- (--) -- (--) -- -- (--) -- (--) -- 0 1.8 0 --
16-03-2020 16.7 (13:30) 7.2 (00:00) 12 11.39 (18:20) 7.22 (18:10) 0.2 0 0 0 0.2
15-03-2020 23.1 (16:30) 9.4 (00:00) 16.3 9.17 (21:20) 6.11 (21:00) 0 0 0 0 0
14-03-2020 21.5 (17:40) 12.3 (00:00) 16.9 4.44 (16:00) 2.22 (16:00) 0 0 0 0 0
13-03-2020 22.6 (17:30) 10.8 (03:00) 16.7 6.67 (16:10) 4.17 (16:20) 0.2 0 0.2 0 0
12-03-2020 24.8 (16:40) 10.3 (00:00) 17.5 9.17 (15:50) 5.83 (15:50) 0 0 0 0 0
11-03-2020 29.5 (16:40) 10.2 (00:00) 19.8 10.28 (11:10) 7.22 (11:10) 0 0 0 0 0

Gráficas

Temp. máximas Temp. mínimas Temp. medias Precipitaciones Rachas de viento máximas Velocidades máximas media en intervalos de 10 minutos

Datos horarios

Fecha y hora oficial Temperatura (ºC) Velocidad del viento (km/h) Dirección del viento Racha (km/h) Dirección de racha Precipitación (mm) Presión (hPa) Tendencia (hPa) Humedad (%)
2020-04-09 23:00:00 16.9 2 Sudeste 5 Sudoeste 0 -- -- 78
2020-04-09 22:00:00 17.3 4 Sudoeste 8 Oeste 0 -- -- 71
2020-04-09 21:00:00 17.6 7 Oeste 14 Sudoeste 0 -- -- 68
2020-04-09 20:00:00 18.4 10 Sudoeste 16 Sudoeste 0 -- -- 61
2020-04-09 19:00:00 19.3 6 Sudoeste 12 Sur 0 -- -- 62
2020-04-09 18:00:00 19.3 5 Oeste 16 Oeste 0 -- -- 69
2020-04-09 17:00:00 19.7 11 Sudoeste 16 Sudoeste 0 -- -- 64
2020-04-09 16:00:00 19.9 8 Oeste 14 Sudoeste 0 -- -- 65
2020-04-09 15:00:00 20 9 Sudoeste 15 Sudoeste 0 -- -- 64
2020-04-09 14:00:00 20.4 4 Oeste 13 Oeste 0 -- -- 62
2020-04-09 13:00:00 19.7 4 Sur 10 Sudeste 0 -- -- 61
2020-04-09 12:00:00 18 5 Este 13 Este 0 -- -- 64
2020-04-09 11:00:00 16.9 9 Este 16 Este 0 -- -- 68
2020-04-09 10:00:00 16 12 Este 16 Este 0 -- -- 74
2020-04-09 09:00:00 15.5 8 Este 12 Este 0 -- -- 78
2020-04-09 08:00:00 15 6 Este 10 Este 0 -- -- 85
2020-04-09 07:00:00 15.2 6 Este 10 Este 0 -- -- 84
2020-04-09 06:00:00 15.5 5 Este 8 Este 0 -- -- 84
2020-04-09 05:00:00 16 5 Este 7 Este 0 -- -- 80
2020-04-09 04:00:00 16.3 0 Calma 5 Sur 0 -- -- 79
2020-04-09 03:00:00 16.7 4 Sudoeste 13 Sudoeste 0 -- -- 79
2020-04-09 02:00:00 17.5 0 Calma 7 Nordeste 0 -- -- 81
2020-04-09 01:00:00 18.2 4 Oeste 12 Sudoeste 0 -- -- 77
2020-04-09 00:00:00 18.9 6 Sur 12 Sur 0 -- -- 74
2020-04-08 23:00:00 19.5 6 Oeste 9 Sudoeste 0 -- -- 73
2020-04-08 22:00:00 20.3 3 Sudoeste 10 Sudoeste 0 -- -- 69
2020-04-08 21:00:00 21.2 3 Norte 7 Noroeste 0 -- -- 64
2020-04-08 20:00:00 22.4 6 Noroeste 8 Noroeste 0 -- -- 59
2020-04-08 19:00:00 23.3 3 Nordeste 11 Este 0 -- -- 50
2020-04-08 18:00:00 24.3 5 Nordeste 16 Este 0 -- -- 46
2020-04-08 17:00:00 24.2 6 Sudeste 15 Nordeste 0 -- -- 49
2020-04-08 16:00:00 23.3 7 Este 18 Sudeste 0 -- -- 49
2020-04-08 15:00:00 22.9 11 Este 33 Nordeste 0 -- -- 50
2020-04-08 14:00:00 22.2 14 Este 30 Este 0 -- -- 55
2020-04-08 13:00:00 21.4 15 Este 25 Nordeste 0 -- -- 57
2020-04-08 12:00:00 20.1 12 Nordeste 28 Este 0 -- -- 62
2020-04-08 11:00:00 17.4 16 Este 24 Este 0 -- -- 70
2020-04-08 10:00:00 15.1 14 Este 23 Este 0 -- -- 80
2020-04-08 09:00:00 13.2 7 Este 14 Este 0 -- -- 89
2020-04-08 08:00:00 13.3 8 Este 17 Este 0 -- -- 89
2020-04-08 07:00:00 14.2 9 Este 18 Este 0 -- -- 90
2020-04-08 06:00:00 14.3 7 Este 10 Este 0 -- -- 91
2020-04-08 05:00:00 14.1 6 Este 9 Este 0 -- -- 90
2020-04-08 04:00:00 14 3 Este 9 Este 0 -- -- 89
2020-04-08 03:00:00 14.6 3 Este 8 Sur 0 -- -- 88
2020-04-08 02:00:00 15.2 6 Sudoeste 9 Sudoeste 0 -- -- 88
2020-04-08 01:00:00 15.9 5 Sudoeste 9 Sudoeste 0 -- -- 86
2020-04-08 00:00:00 16.5 5 Sudoeste 8 Sudoeste 0 -- -- 84
2020-04-07 23:00:00 17.6 3 Sudoeste 6 Oeste 0 -- -- 80
2020-04-07 22:00:00 18.3 5 Oeste 8 Oeste 0 -- -- 77
2020-04-07 21:00:00 19.9 6 Oeste 11 Oeste 0 -- -- 71
2020-04-07 20:00:00 22.1 9 Oeste 15 Oeste 0 -- -- 59
2020-04-07 19:00:00 23.4 9 Oeste 19 Oeste 0 -- -- 51
2020-04-07 18:00:00 23.5 10 Noroeste 17 Noroeste 0 -- -- 50
2020-04-07 17:00:00 23.6 7 Oeste 17 Oeste 0 -- -- 54
2020-04-07 16:00:00 23.1 9 Noroeste 15 Noroeste 0 -- -- 54
2020-04-07 15:00:00 21.5 4 Noroeste 14 Oeste 0 -- -- 59
2020-04-07 14:00:00 21.6 4 Sudoeste 11 Este 0 -- -- 59
2020-04-07 13:00:00 20.4 4 Sudeste 14 Este 0 -- -- 64
2020-04-07 12:00:00 19.9 5 Este 13 Este 0 -- -- 71
2020-04-07 11:00:00 18.2 6 Nordeste 12 Este 0 -- -- 77
2020-04-07 10:00:00 16.9 7 Este 10 Este 0 -- -- 84
2020-04-07 09:00:00 15.1 4 Este 6 Este 0 -- -- 90
2020-04-07 08:00:00 15.1 3 Este 5 Este 0 -- -- 90
2020-04-07 07:00:00 15.2 0 Calma 6 Sudoeste 0 -- -- 89
2020-04-07 06:00:00 15.2 4 Sudoeste 9 Sudoeste 0 -- -- 88
2020-04-07 05:00:00 15.6 5 Sudoeste 10 Sudoeste 0 -- -- 88
2020-04-07 04:00:00 16.3 6 Sudoeste 11 Sudoeste 0 -- -- 88
2020-04-07 03:00:00 16.5 6 Sur 14 Sudoeste 0 -- -- 88
2020-04-07 02:00:00 16.6 8 Sudoeste 15 Sudoeste 0 -- -- 87
2020-04-07 01:00:00 16.8 6 Sudoeste 13 Sudoeste 0 -- -- 86
2020-04-07 00:00:00 17.4 4 Sur 9 Sudoeste 0 -- -- 86
2020-04-06 23:00:00 17.4 4 Oeste 8 Sur 0 -- -- 87
2020-04-06 22:00:00 17.7 0 Calma 9 Oeste 0 -- -- 86
2020-04-06 21:00:00 18.4 2 Nordeste 8 Este 0 -- -- 82
2020-04-06 20:00:00 19.2 4 Nordeste 9 Nordeste 0 -- -- 79
2020-04-06 19:00:00 19.2 5 Nordeste 12 Sudeste 0 -- -- 78
2020-04-06 18:00:00 18.6 2 Este 9 Norte 0 -- -- 78
2020-04-06 17:00:00 17.8 5 Norte 9 Norte 0 -- -- 84
2020-04-06 16:00:00 17.1 4 Norte 6 Norte 0 -- -- 85
2020-04-06 15:00:00 16.4 2 Norte 4 Noroeste 0 -- -- 86
2020-04-06 14:00:00 16 0 Calma 9 Sudeste 1.2 -- -- 87
2020-04-06 13:00:00 15.9 7 Este 15 Este 0 -- -- 84
2020-04-06 12:00:00 15.2 10 Este 17 Este 0 -- -- 87
2020-04-06 11:00:00 14.2 11 Este 19 Este 0 -- -- 91
2020-04-06 10:00:00 13.4 13 Este 19 Este 0.2 -- -- 91
2020-04-06 09:00:00 13.1 9 Este 22 Este 0 -- -- 91
2020-04-06 08:00:00 13.4 8 Nordeste 14 Nordeste 0.2 -- -- 90
2020-04-06 07:00:00 13.8 4 Nordeste 6 Nordeste 0.6 -- -- 88
2020-04-06 06:00:00 14.1 3 Oeste 6 Oeste 1 -- -- 86
2020-04-06 05:00:00 14.9 0 Calma 6 Este 0 -- -- 84
2020-04-06 04:00:00 14.9 2 Este 4 Sudoeste 0 -- -- 83
2020-04-06 03:00:00 15 3 Oeste 13 Oeste 0 -- -- 81
2020-04-06 02:00:00 15.1 6 Oeste 10 Sudoeste 0 -- -- 80
2020-04-06 01:00:00 15.9 5 Sudoeste 14 Sudoeste 0 -- -- 77
2020-04-06 00:00:00 16.1 8 Sudoeste 10 Sudoeste 0 -- -- 78
2020-04-05 23:00:00 17.7 8 Sudoeste 15 Sudoeste 0 -- -- 71
2020-04-05 22:00:00 18.1 10 Sudoeste 19 Sudoeste 0 -- -- 69
2020-04-05 21:00:00 18.5 10 Sudoeste 26 Sudoeste 0 -- -- 66
2020-04-05 20:00:00 20.1 18 Sudoeste 35 Sudoeste 0 -- -- 60
2020-04-05 19:00:00 20.8 22 Sudoeste 39 Sudoeste 0 -- -- 57
2020-04-05 18:00:00 22.3 21 Sudoeste 36 Sudoeste 0 -- -- 51
2020-04-05 17:00:00 22.5 21 Sudoeste 35 Oeste 0 -- -- 50
2020-04-05 16:00:00 21.9 15 Sudoeste 26 Sudoeste 0 -- -- 51
2020-04-05 15:00:00 21.9 11 Sudoeste 24 Oeste 0 -- -- 47
2020-04-05 14:00:00 20.7 8 Sudoeste 24 Sudoeste 0 -- -- 47
2020-04-05 13:00:00 19 10 Este 19 Este 0 -- -- 57
2020-04-05 12:00:00 16.6 10 Este 18 Nordeste 0 -- -- 65
2020-04-05 11:00:00 14.7 10 Este 21 Este 0 -- -- 72
2020-04-05 10:00:00 13.7 13 Este 21 Este 0 -- -- 74
2020-04-05 09:00:00 11 4 Nordeste 10 Nordeste 0 -- -- 88
2020-04-05 08:00:00 9.3 2 Nordeste 9 Este 0 -- -- 88
2020-04-05 07:00:00 9.9 8 Nordeste 10 Nordeste 0 -- -- 85
2020-04-05 06:00:00 10.2 3 Norte 8 Nordeste 0 -- -- 84
2020-04-05 05:00:00 10.5 0 Calma 14 Este 0 -- -- 83
2020-04-05 04:00:00 10.8 8 Este 15 Este 0 -- -- 80
2020-04-05 03:00:00 11.2 8 Este 17 Nordeste 0 -- -- 77
2020-04-05 02:00:00 11.5 8 Este 18 Este 0 -- -- 76
2020-04-05 01:00:00 12 8 Este 14 Este 0 -- -- 77
2020-04-05 00:00:00 12.9 11 Este 15 Este 0 -- -- 75
2020-04-04 23:00:00 13.7 8 Este 13 Este 0 -- -- 78
2020-04-04 22:00:00 15.1 8 Este 17 Este 0 -- -- 73
2020-04-04 21:00:00 16.3 8 Este 15 Este 0 -- -- 68
2020-04-04 20:00:00 17.4 9 Nordeste 16 Nordeste 0 -- -- 62
2020-04-04 19:00:00 18.1 10 Este 21 Este 0 -- -- 57
2020-04-04 18:00:00 18.3 14 Este 24 Nordeste 0 -- -- 54
2020-04-04 17:00:00 17.3 12 Nordeste 23 Nordeste 0.2 -- -- 62
2020-04-04 16:00:00 17.3 8 Sudeste 26 Sudeste 0 -- -- 63
2020-04-04 15:00:00 19.5 12 Sur 23 Sudeste 0 -- -- 46
2020-04-04 14:00:00 19.8 17 Sudeste 28 Este 0 -- -- 43
2020-04-04 13:00:00 17.9 15 Este 29 Este 0 -- -- 58
2020-04-04 12:00:00 15.7 17 Este 30 Este 0 -- -- 64
2020-04-04 11:00:00 13.9 17 Este 31 Este 0 -- -- 70
2020-04-04 10:00:00 11.7 21 Este 36 Este 0 -- -- 78
2020-04-04 09:00:00 11 21 Este 32 Este 0 -- -- 79
2020-04-04 08:00:00 9.4 22 Este 32 Este 0 -- -- 83
2020-04-04 07:00:00 10.1 20 Este 33 Este 0 -- -- 80
2020-04-04 06:00:00 10.5 18 Este 30 Este 0 -- -- 78
2020-04-04 05:00:00 10.8 17 Este 26 Este 0 -- -- 78
2020-04-04 04:00:00 11.7 15 Este 24 Este 0 -- -- 74
2020-04-04 03:00:00 12.2 14 Este 28 Nordeste 0 -- -- 74
2020-04-04 02:00:00 13.4 19 Este 28 Este 0 -- -- 67
2020-04-04 01:00:00 12.8 13 Este 20 Este 0 -- -- 70
2020-04-04 00:00:00 13.4 4 Sudeste 20 Sudeste 0 -- -- 73
2020-04-03 23:00:00 14.8 13 Sudeste 22 Sudeste 0 -- -- 68
2020-04-03 22:00:00 15.8 14 Sudeste 23 Sudeste 0 -- -- 65
2020-04-03 21:00:00 18.1 9 Este 12 Este 0 -- -- 61
2020-04-03 20:00:00 20.6 10 Este 21 Este 0 -- -- 48
2020-04-03 19:00:00 21.2 12 Este 22 Este 0 -- -- 43
2020-04-03 18:00:00 21.3 15 Este 24 Este 0 -- -- 43
2020-04-03 17:00:00 21 15 Este 26 Este 0 -- -- 46
2020-04-03 16:00:00 20.3 14 Este 22 Este 0 -- -- 49
2020-04-03 15:00:00 19.1 12 Este 24 Este 0 -- -- 63
2020-04-03 14:00:00 17.5 14 Este 26 Este 0 -- -- 67
2020-04-03 13:00:00 15.8 12 Este 21 Este 0 -- -- 71
2020-04-03 12:00:00 13.8 10 Este 18 Este 0 -- -- 82
2020-04-03 11:00:00 11.2 14 Este 18 Este 0 -- -- 85
2020-04-03 10:00:00 9.8 13 Este 22 Este 0.2 -- -- 93
2020-04-03 09:00:00 8.2 11 Nordeste 17 Nordeste 0 -- -- 93
2020-04-03 08:00:00 7.7 6 Este 14 Este 0 -- -- 92
2020-04-03 07:00:00 7.6 8 Este 13 Este 0 -- -- 92
2020-04-03 06:00:00 7.7 7 Este 9 Este 0 -- -- 91
2020-04-03 05:00:00 8 3 Nordeste 6 Nordeste 0 -- -- 90
2020-04-03 04:00:00 8.4 4 Nordeste 6 Nordeste 0 -- -- 89
2020-04-03 03:00:00 9.2 0 Calma 5 Este 0 -- -- 89
2020-04-03 02:00:00 9.7 2 Nordeste 6 Sudoeste 0 -- -- 88
2020-04-03 01:00:00 10.2 0 Calma 6 Oeste 0 -- -- 88
2020-04-03 00:00:00 10.7 6 Oeste 9 Oeste 0 -- -- 86
2020-04-02 23:00:00 11.8 3 Noroeste 9 Sudoeste 0 -- -- 82
2020-04-02 22:00:00 12.8 7 Sur 9 Sur 0 -- -- 78
2020-04-02 21:00:00 14.7 5 Sudoeste 13 Sudoeste 0 -- -- 68
2020-04-02 20:00:00 16.4 9 Sudoeste 14 Sudoeste 0 -- -- 57
2020-04-02 19:00:00 16.1 4 Sudoeste 12 Oeste 0 -- -- 56
2020-04-02 18:00:00 15.6 6 Sur 17 Sudeste 0 -- -- 58
2020-04-02 17:00:00 16.1 12 Este 19 Sudeste 0 -- -- 56
2020-04-02 16:00:00 14.8 14 Este 32 Este 0 -- -- 62
2020-04-02 15:00:00 16.6 11 Nordeste 21 Este 0 -- -- 59
2020-04-02 14:00:00 15.2 14 Nordeste 22 Nordeste 0 -- -- 64
2020-04-02 13:00:00 13.7 5 Este 13 Nordeste 0 -- -- 76
2020-04-02 12:00:00 12.4 9 Nordeste 16 Nordeste 0 -- -- 82
2020-04-02 11:00:00 11.2 3 Noroeste 7 Noroeste 0 -- -- 92
2020-04-02 10:00:00 10.2 3 Norte 10 Norte 0 -- -- 92
2020-04-02 09:00:00 9.7 6 Noroeste 10 Noroeste 0 -- -- 92
2020-04-02 08:00:00 9.9 3 Sudeste 3 Sudeste 0 -- -- 90
2020-04-02 07:00:00 10.4 0 Calma 6 Norte 0 -- -- 90
2020-04-02 06:00:00 10.8 0 Calma 9 Sudoeste 0.2 -- -- 90
2020-04-02 05:00:00 11.1 6 Sudoeste 13 Sudoeste 0.2 -- -- 90
2020-04-02 04:00:00 10.7 9 Oeste 25 Sudoeste 4 -- -- 90
2020-04-02 03:00:00 11.1 9 Sur 22 Sur 3.2 -- -- 89
2020-04-02 02:00:00 11.3 11 Sur 20 Sur 1.2 -- -- 88
2020-04-02 01:00:00 11.4 9 Sudeste 38 Sudoeste 2.6 -- -- 87
2020-04-02 00:00:00 11.9 12 Sur 22 Sur 0.2 -- -- 84
2020-04-01 23:00:00 12.1 11 Sur 16 Sur 0 -- -- 86
2020-04-01 22:00:00 11.5 8 Sudeste 13 Este 0 -- -- 85
2020-04-01 21:00:00 12.1 9 Este 14 Este 0 -- -- 85
2020-04-01 20:00:00 13.3 4 Sur 8 Sur 0 -- -- 75
2020-04-01 19:00:00 12.5 0 Calma 25 Oeste 2.2 -- -- 84
2020-04-01 18:00:00 13.9 5 Oeste 12 Oeste 0 -- -- 69
2020-04-01 17:00:00 13.2 12 Oeste 39 Oeste 0 -- -- 75
2020-04-01 16:00:00 15.8 17 Sudoeste 29 Sudoeste 0 -- -- 51
2020-04-01 15:00:00 16.6 9 Sudoeste 23 Oeste 0 -- -- 49
2020-04-01 14:00:00 16.1 8 Sudoeste 21 Sudoeste 0 -- -- 49
2020-04-01 13:00:00 14.8 8 Oeste 19 Oeste 0 -- -- 48
2020-04-01 12:00:00 14.1 5 Sur 13 Sur 0 -- -- 52
2020-04-01 11:00:00 11.6 5 Sudoeste 8 Sur 0 -- -- 81
2020-04-01 10:00:00 10.2 4 Noroeste 9 Oeste 0.2 -- -- 90
2020-04-01 09:00:00 9.5 0 Calma 5 Sur 0 -- -- 91
2020-04-01 08:00:00 9.1 0 Calma 5 Sudoeste 0 -- -- 90
2020-04-01 07:00:00 9.1 4 Sudoeste 8 Sudoeste 0 -- -- 89
2020-04-01 06:00:00 9.3 4 Sudoeste 10 Oeste 0 -- -- 89
2020-04-01 05:00:00 9.8 7 Sudoeste 10 Sudoeste 0 -- -- 88
2020-04-01 04:00:00 10.3 5 Sur 9 Sudoeste 0 -- -- 88
2020-04-01 03:00:00 11 6 Sudoeste 11 Sudoeste 0 -- -- 86
2020-04-01 02:00:00 11.7 7 Sudoeste 16 Sudoeste 0 -- -- 84
2020-04-01 01:00:00 12.2 10 Sudoeste 18 Sudoeste 0 -- -- 81
2020-04-01 00:00:00 12.3 9 Sudoeste 21 Sudoeste 0 -- -- 80
2020-03-31 23:00:00 13.4 12 Sudoeste 23 Sudoeste 0 -- -- 77
2020-03-31 22:00:00 14 13 Sudoeste 23 Sudoeste 0 -- -- 75
2020-03-31 21:00:00 14.8 15 Sudoeste 29 Sudoeste 0 -- -- 69
2020-03-31 20:00:00 16.1 15 Sudoeste 35 Sudoeste 0 -- -- 65
2020-03-31 19:00:00 17.4 23 Sudoeste 38 Sudoeste 0 -- -- 61
2020-03-31 18:00:00 17.7 23 Sudoeste 42 Sudoeste 0 -- -- 63
2020-03-31 17:00:00 17.3 17 Sudoeste 36 Sudoeste 1.6 -- -- 75
2020-03-31 16:00:00 18.2 24 Sudoeste 43 Sudoeste 0 -- -- 63
2020-03-31 15:00:00 17.4 23 Sudoeste 46 Sudoeste 0 -- -- 65
2020-03-31 14:00:00 17.7 17 Sur 40 Sudoeste 0 -- -- 71
2020-03-31 13:00:00 17.5 23 Sur 39 Sudoeste 0 -- -- 70
2020-03-31 12:00:00 14.7 8 Sur 32 Sur 2.8 -- -- 86
2020-03-31 11:00:00 15.2 14 Sudoeste 23 Sudoeste 0 -- -- 80
2020-03-31 10:00:00 14 14 Sudoeste 27 Sur 0 -- -- 84
2020-03-31 09:00:00 12.6 16 Sur 27 Sur 0 -- -- 87
2020-03-31 08:00:00 12.4 15 Sur 31 Sur 0 -- -- 88
2020-03-31 07:00:00 12.7 16 Sur 39 Sudoeste 0.2 -- -- 88
2020-03-31 06:00:00 12.3 21 Sur 35 Sur 1.8 -- -- 91
2020-03-31 05:00:00 11.8 13 Este 28 Este 0 -- -- 92
2020-03-31 04:00:00 11.5 10 Este 27 Este 2.2 -- -- 92
2020-03-31 03:00:00 11.5 13 Este 27 Este 2.2 -- -- 91
2020-03-31 02:00:00 11.7 18 Este 30 Este 1 -- -- 91
2020-03-31 01:00:00 11.6 10 Este 22 Sudeste 5.6 -- -- 90
2020-03-31 00:00:00 11.9 12 Este 26 Sudeste 0.4 -- -- 89
2020-03-30 23:00:00 12.1 9 Sudeste 14 Sudeste 1.4 -- -- 88
2020-03-30 22:00:00 12.5 7 Este 10 Este 0 -- -- 88
2020-03-30 21:00:00 12.7 5 Este 8 Norte 0 -- -- 87
2020-03-30 20:00:00 12.8 3 Norte 9 Oeste 0.6 -- -- 86
2020-03-30 19:00:00 12.9 6 Oeste 25 Oeste 1.4 -- -- 82
2020-03-30 18:00:00 14 16 Oeste 29 Oeste 0.6 -- -- 78
2020-03-30 17:00:00 14.5 5 Sur 44 Sudoeste 1.4 -- -- 85
2020-03-30 16:00:00 18.4 7 Sudoeste 18 Sur 0 -- -- 52
2020-03-30 15:00:00 18.4 5 Sudoeste 15 Sudoeste 0 -- -- 53
2020-03-30 14:00:00 17.5 4 Sudoeste 11 Norte 0 -- -- 58
2020-03-30 13:00:00 16.7 2 Este 8 Sudeste 0 -- -- 65
2020-03-30 12:00:00 14.7 4 Sudeste 9 Sudeste 0 -- -- 77
2020-03-30 11:00:00 13.4 3 Norte 8 Nordeste 0 -- -- 84
2020-03-30 10:00:00 12.7 6 Nordeste 9 Este 0 -- -- 88
2020-03-30 09:00:00 10.3 2 Este 7 Nordeste 0 -- -- 90
2020-03-30 08:00:00 10.4 2 Este 4 Nordeste 0 -- -- 89
2020-03-30 07:00:00 10.4 0 Calma 5 Nordeste 0 -- -- 90
2020-03-30 06:00:00 10 5 Nordeste 6 Nordeste 0 -- -- 88
2020-03-30 05:00:00 11.1 5 Sudoeste 9 Sudoeste 0 -- -- 89
2020-03-30 04:00:00 11.6 6 Sudoeste 8 Sudoeste 0 -- -- 89
2020-03-30 03:00:00 11.6 3 Oeste 11 Sudoeste 0 -- -- 87
2020-03-30 02:00:00 12.3 7 Oeste 18 Sudoeste 0 -- -- 84
2020-03-30 01:00:00 13.6 12 Sudoeste 17 Sudoeste 0 -- -- 80
2020-03-30 00:00:00 14.2 10 Sudoeste 18 Sudoeste 0 -- -- 75
2020-03-29 23:00:00 15.4 7 Sudoeste 18 Sudoeste 0 -- -- 71
2020-03-29 22:00:00 16.6 12 Sudoeste 19 Oeste 0 -- -- 65
2020-03-29 21:00:00 17.8 10 Oeste 18 Oeste 0 -- -- 55
2020-03-29 20:00:00 19.3 9 Sudoeste 15 Sudoeste 0 -- -- 47
2020-03-29 19:00:00 20.1 10 Sudoeste 14 Sudoeste 0 -- -- 41
2020-03-29 18:00:00 20.6 8 Sudoeste 18 Sudoeste 0 -- -- 40
2020-03-29 17:00:00 21.1 10 Oeste 18 Sudoeste 0 -- -- 41
2020-03-29 16:00:00 20.7 10 Sudoeste 18 Sur 0 -- -- 40
2020-03-29 15:00:00 20.3 8 Oeste 15 Oeste 0 -- -- 44
2020-03-29 14:00:00 20.2 3 Sudeste 10 Nordeste 0 -- -- 45
2020-03-29 13:00:00 18.8 5 Nordeste 10 Nordeste 0 -- -- 50
2020-03-29 12:00:00 16.9 4 Norte 11 Este 0 -- -- 58
2020-03-29 11:00:00 14.1 7 Nordeste 12 Nordeste 0 -- -- 72
2020-03-29 10:00:00 10.7 3 Nordeste 6 Norte 0 -- -- 86
2020-03-29 09:00:00 8.3 2 Nordeste 7 Nordeste 0 -- -- 90
2020-03-29 08:00:00 7.9 4 Nordeste 5 Nordeste 0 -- -- 88
2020-03-29 07:00:00 8.6 3 Este 6 Nordeste 0 -- -- 87
2020-03-29 06:00:00 9.1 4 Nordeste 5 Nordeste 0 -- -- 85
2020-03-29 05:00:00 9.9 2 Nordeste 5 Norte 0 -- -- 84
2020-03-29 03:00:00 11.2 0 Calma 6 Sudoeste 0 -- -- 80
2020-03-29 01:00:00 11.9 5 Oeste 10 Oeste 0 -- -- 76
2020-03-29 00:00:00 13 9 Oeste 17 Sudoeste 0 -- -- 70
2020-03-28 23:00:00 14 11 Sudoeste 17 Sudoeste 0 -- -- 66
2020-03-28 22:00:00 15.9 16 Sudoeste 29 Sudoeste 0 -- -- 58
2020-03-28 21:00:00 16 3 Oeste 5 Noroeste 0 -- -- 60
2020-03-28 20:00:00 17 4 Noroeste 8 Noroeste 0 -- -- 53
2020-03-28 19:00:00 19.5 6 Noroeste 13 Oeste 0 -- -- 43
2020-03-28 18:00:00 20.3 4 Noroeste 11 Noroeste 0 -- -- 39
2020-03-28 17:00:00 20.1 7 Noroeste 15 Oeste 0 -- -- 41
2020-03-28 16:00:00 20.1 2 Sur 15 Este 0 -- -- 38
2020-03-28 15:00:00 19.6 6 Sudeste 15 Sudeste 0 -- -- 39
2020-03-28 14:00:00 18.7 5 Sur 25 Este 0 -- -- 45
2020-03-28 13:00:00 18 8 Sudeste 19 Este 0 -- -- 51
2020-03-28 12:00:00 16.5 10 Este 24 Este 0 -- -- 55
2020-03-28 11:00:00 14.8 19 Este 32 Este 0 -- -- 57
2020-03-28 10:00:00 12.6 23 Este 36 Este 0 -- -- 60
2020-03-28 09:00:00 10.9 19 Este 32 Este 0 -- -- 66
2020-03-28 08:00:00 8.5 9 Este 17 Este 0 -- -- 78
2020-03-28 07:00:00 7.3 8 Este 12 Este 0 -- -- 84
2020-03-28 06:00:00 7.7 6 Este 9 Este 0 -- -- 84
2020-03-28 05:00:00 8.6 5 Este 9 Este 0 -- -- 81
2020-03-28 04:00:00 9.7 6 Este 11 Nordeste 0 -- -- 83
2020-03-28 03:00:00 10.2 7 Sudeste 13 Este 0 -- -- 82
2020-03-28 02:00:00 10.7 8 Sudeste 12 Sudeste 0 -- -- 81
2020-03-28 01:00:00 12.4 4 Sudeste 13 Este 0 -- -- 77
2020-03-28 00:00:00 12.9 7 Sudeste 13 Sudeste 0 -- -- 75
2020-03-27 23:00:00 13.6 4 Sur 6 Sur 0 -- -- 74
2020-03-27 22:00:00 13.4 2 Oeste 11 Sudoeste 0 -- -- 74
2020-03-27 21:00:00 14.1 9 Sudoeste 21 Sudoeste 0 -- -- 67
2020-03-27 20:00:00 15 13 Sudoeste 22 Sudoeste 0 -- -- 58
2020-03-27 19:00:00 17.3 13 Sudoeste 23 Sudoeste 0 -- -- 47
2020-03-27 18:00:00 19 9 Sudoeste 22 Sudoeste 0 -- -- 39
2020-03-27 17:00:00 18.6 4 Sudoeste 21 Sudoeste 0 -- -- 42
2020-03-27 16:00:00 17.8 5 Sur 27 Sudoeste 0 -- -- 45
2020-03-27 15:00:00 17 9 Oeste 26 Oeste 0 -- -- 50
2020-03-27 14:00:00 15.7 14 Oeste 24 Sudoeste 0 -- -- 53
2020-03-27 13:00:00 14.2 12 Sudoeste 23 Oeste 0 -- -- 59
2020-03-27 12:00:00 12.4 5 Sudoeste 13 Sudoeste 0 -- -- 68
2020-03-27 11:00:00 11.2 0 Calma 7 Oeste 0 -- -- 75
2020-03-27 10:00:00 9.7 3 Sudoeste 9 Oeste 0 -- -- 80
2020-03-27 09:00:00 9 7 Oeste 15 Sudoeste 0 -- -- 87
2020-03-27 08:00:00 8 4 Sudoeste 14 Sudoeste 0 -- -- 90
2020-03-27 07:00:00 8 8 Sudoeste 13 Sudoeste 0 -- -- 89
2020-03-27 06:00:00 8.9 6 Sudoeste 14 Sudoeste 0 -- -- 89
2020-03-27 05:00:00 9.2 8 Sudoeste 15 Sudoeste 0 -- -- 87
2020-03-27 04:00:00 9.7 6 Sudoeste 13 Sudoeste 0 -- -- 84
2020-03-27 03:00:00 10.6 7 Oeste 18 Noroeste 0 -- -- 79
2020-03-27 02:00:00 12.4 13 Oeste 23 Oeste 0 -- -- 70
2020-03-27 01:00:00 12 9 Sudoeste 18 Sudoeste 0 -- -- 73
2020-03-27 00:00:00 12.6 8 Oeste 12 Oeste 0 -- -- 71
2020-03-26 23:00:00 13.7 8 Oeste 14 Sudoeste 0 -- -- 66
2020-03-26 22:00:00 14.7 5 Oeste 16 Oeste 0 -- -- 60
2020-03-26 21:00:00 16 11 Oeste 15 Sudoeste 0 -- -- 55
2020-03-26 20:00:00 18.2 10 Noroeste 25 Noroeste 0 -- -- 45
2020-03-26 19:00:00 21.3 14 Noroeste 33 Noroeste 0 -- -- 35
2020-03-26 18:00:00 22.4 22 Noroeste 35 Noroeste 0 -- -- 34
2020-03-26 17:00:00 24.1 15 Oeste 30 Oeste 0 -- -- 27
2020-03-26 16:00:00 23.2 17 Sudoeste 33 Sudoeste 0 -- -- 34
2020-03-26 15:00:00 22 19 Sudoeste 31 Sudoeste 0 -- -- 42
2020-03-26 14:00:00 20 15 Oeste 24 Oeste 0 -- -- 56
2020-03-26 13:00:00 18.2 6 Sudoeste 18 Oeste 0 -- -- 60
2020-03-26 12:00:00 16.8 8 Sudoeste 16 Sudoeste 0 -- -- 66
2020-03-26 11:00:00 15.6 6 Oeste 18 Oeste 0 -- -- 71
2020-03-26 10:00:00 14 9 Oeste 17 Oeste 0 -- -- 77
2020-03-26 09:00:00 13.2 10 Sudoeste 18 Sudoeste 0 -- -- 83
2020-03-26 08:00:00 12.7 10 Sudoeste 17 Sudoeste 0 -- -- 84
2020-03-26 07:00:00 12.6 11 Sudoeste 19 Sudoeste 0 -- -- 82
2020-03-26 06:00:00 12.7 9 Sudoeste 22 Sudoeste 0 -- -- 81
2020-03-26 05:00:00 13 13 Sudoeste 23 Sudoeste 0 -- -- 80
2020-03-26 04:00:00 13.4 11 Sudoeste 19 Sudoeste 0 -- -- 80
2020-03-26 03:00:00 13.3 9 Sudoeste 18 Sudoeste 0 -- -- 86
2020-03-26 02:00:00 14 13 Sudoeste 21 Oeste 0 -- -- 83
2020-03-26 01:00:00 13.8 13 Oeste 24 Sudoeste 0 -- -- 85
2020-03-26 00:00:00 14.2 19 Oeste 29 Oeste 0 -- -- 80
2020-03-25 23:00:00 14.1 18 Sudoeste 26 Sudoeste 0 -- -- 77
2020-03-25 22:00:00 14.6 14 Sudoeste 24 Sudoeste 0 -- -- 76
2020-03-25 21:00:00 15.3 12 Oeste 43 Oeste 0 -- -- 75
2020-03-25 20:00:00 16.2 30 Oeste 44 Oeste 0 -- -- 73
2020-03-25 19:00:00 18.9 18 Sudoeste 27 Sudoeste 0 -- -- 59
2020-03-25 18:00:00 19.9 21 Sudoeste 30 Sudoeste 0 -- -- 53
2020-03-25 17:00:00 19.5 18 Sudoeste 27 Oeste 0 -- -- 54
2020-03-25 16:00:00 20.1 18 Sudoeste 32 Oeste 0 -- -- 51
2020-03-25 15:00:00 19.9 11 Oeste 23 Oeste 0 -- -- 46
2020-03-25 14:00:00 19.2 13 Oeste 22 Oeste 0 -- -- 49
2020-03-25 13:00:00 18.6 6 Oeste 16 Noroeste 0 -- -- 48
2020-03-25 12:00:00 18 5 Oeste 11 Oeste 0 -- -- 51
2020-03-25 11:00:00 16.9 4 Noroeste 10 Noroeste 0 -- -- 54
2020-03-25 10:00:00 14.5 4 Noroeste 7 Noroeste 0 -- -- 69
2020-03-25 09:00:00 13.2 2 Norte 5 Este 0 -- -- 79
2020-03-25 08:00:00 12.5 4 Nordeste 10 Nordeste 0 -- -- 78
2020-03-25 07:00:00 12.1 4 Sudeste 6 Sudeste 0 -- -- 79
2020-03-25 06:00:00 12.3 3 Nordeste 6 Sudeste 0 -- -- 81
2020-03-25 05:00:00 12.9 6 Sudeste 8 Este 0 -- -- 77
2020-03-25 04:00:00 13.7 4 Sudeste 8 Sudeste 0 -- -- 73
2020-03-25 03:00:00 13.3 0 Calma 4 Sur 0 -- -- 80
2020-03-25 02:00:00 13.7 5 Nordeste 10 Este 0 -- -- 70
2020-03-25 01:00:00 14.3 8 Este 20 Este 0 -- -- 66
2020-03-25 00:00:00 15.6 14 Este 23 Este 0 -- -- 60
2020-03-24 23:00:00 15.9 8 Nordeste 15 Nordeste 0 -- -- 64
2020-03-24 22:00:00 15.9 8 Nordeste 15 Este 0 -- -- 70
2020-03-24 21:00:00 17.4 5 Nordeste 8 Este 0 -- -- 66
2020-03-24 20:00:00 18.6 0 Calma 7 Este 0 -- -- 67
2020-03-24 19:00:00 20 5 Este 15 Este 0 -- -- 51
2020-03-24 18:00:00 20.5 7 Nordeste 22 Este 0 -- -- 47
2020-03-24 17:00:00 20.6 12 Este 27 Este 0 -- -- 46
2020-03-24 16:00:00 20.9 17 Este 34 Este 0 -- -- 45
2020-03-24 15:00:00 21 15 Este 35 Este 0 -- -- 45
2020-03-24 14:00:00 20.3 22 Este 37 Este 0 -- -- 45
2020-03-24 13:00:00 18.7 28 Este 44 Este 0 -- -- 48
2020-03-24 12:00:00 18.5 27 Este 44 Este 0 -- -- 49
2020-03-24 11:00:00 17.3 23 Este 37 Este 0 -- -- 55
2020-03-24 10:00:00 15.3 10 Nordeste 29 Nordeste 0 -- -- 66
2020-03-24 09:00:00 11 4 Nordeste 10 Norte 0 -- -- 87
2020-03-24 08:00:00 10 6 Norte 11 Norte 0 -- -- 88
2020-03-24 07:00:00 9.1 6 Norte 11 Norte 0 -- -- 89
2020-03-24 06:00:00 8.9 8 Norte 12 Norte 0 -- -- 89
2020-03-24 05:00:00 8.9 0 Calma 9 Nordeste 0 -- -- 89
2020-03-24 04:00:00 9.2 6 Nordeste 9 Nordeste 0 -- -- 89
2020-03-24 03:00:00 9.9 6 Norte 7 Norte 0 -- -- 87
2020-03-24 02:00:00 10.9 5 Nordeste 8 Nordeste 0 -- -- 87
2020-03-24 01:00:00 11.6 4 Este 13 Este 0.6 -- -- 84
2020-03-24 00:00:00 11.8 9 Este 21 Este 0 -- -- 80
2020-03-23 23:00:00 11.9 11 Este 22 Nordeste 0 -- -- 78
2020-03-23 22:00:00 12.6 14 Nordeste 32 Este 0 -- -- 75
2020-03-23 21:00:00 13.4 21 Este 37 Este 0 -- -- 68
2020-03-23 20:00:00 14.4 11 Este 21 Este 0 -- -- 63
2020-03-23 19:00:00 16 13 Sudeste 26 Sudeste 0 -- -- 58
2020-03-23 18:00:00 16.1 19 Sudeste 42 Sudeste 0 -- -- 59
2020-03-23 17:00:00 19.3 9 Este 24 Este 0 -- -- 46
2020-03-23 16:00:00 19.2 13 Nordeste 32 Este 0 -- -- 47
2020-03-23 15:00:00 18.4 16 Este 31 Este 0 -- -- 49
2020-03-23 14:00:00 18.8 11 Nordeste 23 Este 0 -- -- 51
2020-03-23 13:00:00 17 12 Este 28 Este 0 -- -- 63
2020-03-23 12:00:00 16.3 13 Nordeste 24 Este 0 -- -- 63
2020-03-23 11:00:00 13.4 12 Este 24 Este 0 -- -- 77
2020-03-23 10:00:00 11.6 14 Este 22 Este 0 -- -- 85
2020-03-23 09:00:00 10.7 10 Este 17 Este 0 -- -- 91
2020-03-23 08:00:00 9.4 8 Este 11 Este 0 -- -- 92
2020-03-23 07:00:00 9.3 4 Este 7 Este 0 -- -- 92
2020-03-23 06:00:00 8.7 4 Nordeste 7 Norte 0 -- -- 92
2020-03-23 05:00:00 8.7 4 Nordeste 12 Este 0 -- -- 90
2020-03-23 04:00:00 9.1 4 Nordeste 10 Nordeste 0 -- -- 90
2020-03-23 03:00:00 9.5 5 Nordeste 11 Este 0 -- -- 89
2020-03-23 02:00:00 9.9 5 Este 6 Este 0 -- -- 88
2020-03-23 01:00:00 10.4 3 Este 8 Nordeste 0 -- -- 86
2020-03-23 00:00:00 10.7 3 Nordeste 7 Nordeste 0 -- -- 86
2020-03-22 23:00:00 10.6 3 Noroeste 8 Noroeste 0 -- -- 85
2020-03-22 22:00:00 11.2 5 Nordeste 9 Nordeste 0 -- -- 82
2020-03-22 21:00:00 11.8 7 Nordeste 9 Nordeste 0 -- -- 81
2020-03-22 20:00:00 13.9 0 Calma 8 Norte 0 -- -- 74
2020-03-22 19:00:00 14.9 6 Norte 13 Noroeste 0 -- -- 64
2020-03-22 18:00:00 15.4 10 Norte 25 Norte 0 -- -- 61
2020-03-22 17:00:00 16.9 3 Sudoeste 12 Sudoeste 0 -- -- 55
2020-03-22 16:00:00 16.3 5 Sudoeste 13 Sur 0 -- -- 56
2020-03-22 15:00:00 15.5 4 Sur 9 Sur 0 -- -- 58
2020-03-22 14:00:00 14.4 8 Este 17 Sudeste 0 -- -- 63
2020-03-22 13:00:00 14.4 12 Este 22 Este 0 -- -- 70
2020-03-22 12:00:00 13 15 Este 23 Este 0 -- -- 75
2020-03-22 11:00:00 11.4 15 Este 22 Este 0.2 -- -- 91
2020-03-22 10:00:00 10.2 12 Este 19 Este 0.2 -- -- 91
2020-03-22 09:00:00 9.9 11 Este 17 Este 0 -- -- 92
2020-03-22 08:00:00 9.8 9 Este 15 Este 0.4 -- -- 91
2020-03-22 07:00:00 9.9 8 Este 16 Este 0.2 -- -- 91
2020-03-22 06:00:00 9.8 3 Este 12 Este 0 -- -- 90
2020-03-22 05:00:00 9.6 8 Este 16 Este 0.2 -- -- 90
2020-03-22 04:00:00 9.5 12 Este 20 Este 0 -- -- 90
2020-03-22 03:00:00 9.5 11 Este 17 Este 0 -- -- 90
2020-03-22 02:00:00 9.5 11 Este 17 Este 3 -- -- 90
2020-03-22 01:00:00 9.2 8 Este 16 Este 0.4 -- -- 90
2020-03-22 00:00:00 9.2 6 Nordeste 14 Noroeste 0.6 -- -- 90
2020-03-21 23:00:00 8.7 4 Nordeste 6 Norte 0 -- -- 88
2020-03-21 22:00:00 9.3 4 Nordeste 7 Nordeste 0 -- -- 87
2020-03-21 21:00:00 9.8 4 Sur 16 Sur 0 -- -- 86
2020-03-21 20:00:00 10.4 10 Sur 16 Sur 0 -- -- 84
2020-03-21 19:00:00 11.2 6 Sudeste 17 Oeste 0.2 -- -- 83
2020-03-21 18:00:00 11.9 8 Noroeste 14 Noroeste 0 -- -- 77
2020-03-21 17:00:00 11.5 6 Sur 54 Sur 1.4 -- -- 73
2020-03-21 16:00:00 12.1 14 Sudeste 34 Sudeste 0.6 -- -- 85
2020-03-21 15:00:00 12.5 10 Este 16 Este 0.2 -- -- 82
2020-03-21 14:00:00 11.4 5 Sudoeste 26 Sudoeste 1.4 -- -- 84
2020-03-21 13:00:00 11.8 19 Sudoeste 32 Sudoeste 2.8 -- -- 81
2020-03-21 12:00:00 14.9 12 Sur 19 Sur 0 -- -- 61
2020-03-21 11:00:00 14.6 9 Sur 17 Sur 0 -- -- 68
2020-03-21 10:00:00 12.9 7 Sur 15 Sur 0 -- -- 76
2020-03-21 09:00:00 11.6 10 Sur 15 Sur 0 -- -- 87
2020-03-21 08:00:00 9.6 5 Sur 8 Sur 0 -- -- 90
2020-03-21 07:00:00 9.6 5 Sur 10 Sudoeste 0 -- -- 89
2020-03-21 06:00:00 9.9 6 Sudoeste 19 Sudoeste 0 -- -- 87
2020-03-21 05:00:00 10.5 14 Sudoeste 28 Sudoeste 0 -- -- 86
2020-03-21 04:00:00 11.2 19 Sudoeste 32 Sudoeste 0 -- -- 86
2020-03-21 03:00:00 12.2 14 Sudoeste 26 Sudoeste 2.6 -- -- 89
2020-03-21 02:00:00 12.3 15 Sudoeste 32 Sudoeste 5.4 -- -- 88
2020-03-21 01:00:00 14.4 17 Sur 27 Sur 2.8 -- -- 87
2020-03-21 00:00:00 14.2 4 Sur 15 Sudoeste 1 -- -- 85
2020-03-20 23:00:00 14.9 6 Sudoeste 37 Sudoeste 0.6 -- -- 81
2020-03-20 22:00:00 16.9 15 Sudoeste 26 Sudoeste 0 -- -- 63
2020-03-20 21:00:00 18.1 9 Sudoeste 19 Sur 0 -- -- 58
2020-03-20 20:00:00 18.5 4 Sur 9 Sudoeste 0 -- -- 59
2020-03-20 19:00:00 19.5 5 Sudoeste 18 Sudeste 0 -- -- 53
2020-03-20 18:00:00 20.5 8 Sur 15 Sur 0 -- -- 49
2020-03-20 17:00:00 20.9 7 Sur 15 Sur 0 -- -- 47
2020-03-20 16:00:00 20.7 6 Sur 13 Oeste 0 -- -- 52
2020-03-20 15:00:00 20.7 10 Oeste 19 Sudoeste 0 -- -- 51
2020-03-20 14:00:00 20.1 5 Sudeste 17 Sudeste 0 -- -- 48
2020-03-20 13:00:00 20.4 8 Este 19 Sudeste 0 -- -- 48
2020-03-20 12:00:00 19.3 10 Sudeste 21 Este 0 -- -- 50
2020-03-20 11:00:00 17.7 9 Este 22 Este 0 -- -- 58
2020-03-20 10:00:00 15.8 14 Este 23 Este 0 -- -- 65
2020-03-20 09:00:00 14 16 Este 23 Este 0 -- -- 71
2020-03-20 08:00:00 12.2 7 Este 13 Este 0 -- -- 80
2020-03-20 07:00:00 12.5 8 Este 12 Este 0 -- -- 81
2020-03-20 06:00:00 12.8 6 Nordeste 10 Este 0 -- -- 79
2020-03-20 05:00:00 14 5 Sudeste 8 Este 0 -- -- 77
2020-03-20 04:00:00 14 5 Este 8 Este 0 -- -- 75
2020-03-20 03:00:00 14.9 3 Sur 10 Sudoeste 0 -- -- 73
2020-03-20 02:00:00 14.7 8 Sur 12 Sur 0 -- -- 72
2020-03-20 01:00:00 14.7 9 Sudeste 12 Este 0 -- -- 69
2020-03-20 00:00:00 15.2 6 Sudeste 15 Este 0 -- -- 66
2020-03-19 23:00:00 15.9 10 Este 16 Este 0 -- -- 63
2020-03-19 22:00:00 16.6 12 Sudeste 19 Sudeste 0 -- -- 60
2020-03-19 21:00:00 17.4 10 Este 24 Sudeste 0 -- -- 58
2020-03-19 20:00:00 18.7 17 Sudeste 27 Sudeste 0 -- -- 54
2020-03-19 19:00:00 19.9 16 Este 27 Sudeste 0 -- -- 50
2020-03-19 18:00:00 21 19 Este 33 Este 0 -- -- 46
2020-03-19 17:00:00 22.5 22 Sudeste 33 Sudeste 0 -- -- 43
2020-03-19 16:00:00 22.9 18 Este 38 Este 0 -- -- 41
2020-03-19 15:00:00 22.9 20 Este 37 Este 0 -- -- 41
2020-03-19 14:00:00 21.7 18 Nordeste 35 Nordeste 0 -- -- 46
2020-03-19 13:00:00 20.2 21 Este 35 Este 0 -- -- 51
2020-03-19 12:00:00 18.4 20 Este 31 Este 0 -- -- 60
2020-03-19 11:00:00 16.6 16 Este 32 Este 0 -- -- 67
2020-03-19 10:00:00 14.9 22 Este 36 Este 0 -- -- 70
2020-03-19 09:00:00 13.7 22 Este 33 Este 0 -- -- 72
2020-03-19 08:00:00 13.2 14 Nordeste 22 Este 0 -- -- 75
2020-03-19 07:00:00 13.2 12 Este 21 Este 0 -- -- 75
2020-03-19 06:00:00 12.9 11 Nordeste 18 Nordeste 0 -- -- 77
2020-03-19 05:00:00 12.9 8 Este 13 Este 0 -- -- 76
2020-03-19 04:00:00 13.4 8 Este 17 Nordeste 0 -- -- 74
2020-03-19 03:00:00 14 11 Este 16 Este 0 -- -- 72
2020-03-19 02:00:00 14.6 10 Este 20 Este 0 -- -- 70
2020-03-19 01:00:00 14.7 13 Este 19 Este 0 -- -- 68
2020-03-19 00:00:00 15 11 Este 19 Este 0 -- -- 65
2020-03-18 23:00:00 15.4 9 Este 13 Este 0 -- -- 61
2020-03-18 22:00:00 16.4 8 Este 14 Este 0 -- -- 58
2020-03-18 21:00:00 17.6 9 Este 14 Sudeste 0 -- -- 53
2020-03-18 20:00:00 19.2 10 Sudeste 24 Sudeste 0 -- -- 50
2020-03-18 19:00:00 21.3 17 Sudeste 31 Sudeste 0 -- -- 44
2020-03-18 18:00:00 23.2 18 Sudeste 29 Sudeste 0 -- -- 40
2020-03-18 17:00:00 23.9 19 Sudeste 34 Este 0 -- -- 41
2020-03-18 16:00:00 24.4 16 Este 38 Sudeste 0 -- -- 37
2020-03-18 15:00:00 24 17 Este 38 Este 0 -- -- 39
2020-03-18 14:00:00 23.3 18 Este 38 Este 0 -- -- 43
2020-03-18 13:00:00 21.9 24 Sudeste 38 Este 0 -- -- 43
2020-03-18 12:00:00 20.6 26 Este 47 Este 0 -- -- 46
2020-03-18 11:00:00 18.5 24 Este 48 Este 0 -- -- 51
2020-03-18 10:00:00 18 27 Este 43 Este 0 -- -- 53
2020-03-18 09:00:00 16 27 Este 39 Este 0 -- -- 61
2020-03-18 08:00:00 13.1 15 Este 24 Este 0 -- -- 73
2020-03-18 07:00:00 11.1 4 Norte 8 Este 0 -- -- 83
2020-03-18 06:00:00 12.4 9 Este 17 Este 0 -- -- 79
2020-03-18 05:00:00 12.1 8 Este 17 Nordeste 0 -- -- 79
2020-03-18 04:00:00 11.6 8 Este 15 Nordeste 0 -- -- 80
2020-03-18 03:00:00 12.8 4 Nordeste 21 Sudeste 0 -- -- 74
2020-03-18 02:00:00 12.6 16 Sudeste 24 Sudeste 0 -- -- 73
2020-03-18 01:00:00 12.3 9 Este 14 Sudeste 0 -- -- 75
2020-03-18 00:00:00 12.4 12 Este 16 Este 0 -- -- 71
2020-03-17 23:00:00 11.4 5 Nordeste 15 Nordeste 0 -- -- 76
2020-03-17 22:00:00 12 12 Nordeste 19 Nordeste 0 -- -- 77
2020-03-17 21:00:00 13.2 5 Nordeste 10 Nordeste 0 -- -- 74
2020-03-17 20:00:00 -- -- -- -- -- -- -- -- --
2020-03-17 19:00:00 17 6 Este 20 Este 0 -- -- 47
2020-03-17 18:00:00 18 11 Este 27 Este 0 -- -- 41
2020-03-17 17:00:00 17.8 15 Este 31 Este 0 -- -- 37
2020-03-17 16:00:00 16.9 14 Este 36 Sudeste 0 -- -- 43
2020-03-17 15:00:00 17.1 24 Este 49 Sudeste 0 -- -- 45
2020-03-17 14:00:00 17.1 30 Sudeste 50 Sudeste 0 -- -- 44
2020-03-17 13:00:00 15.8 19 Este 33 Este 0 -- -- 58
2020-03-17 12:00:00 13.3 19 Este 40 Este 0 -- -- 69
2020-03-17 11:00:00 11.9 25 Este 38 Este 0 -- -- 76
2020-03-17 10:00:00 10 20 Este 30 Este 0.4 -- -- 88
2020-03-17 09:00:00 8.5 17 Este 27 Este 0.2 -- -- 89
2020-03-17 08:00:00 8.1 12 Este 21 Este 1 -- -- 88
2020-03-17 07:00:00 8.2 13 Este 20 Este 0.2 -- -- 86
2020-03-17 06:00:00 8.5 8 Este 15 Este 0 -- -- 85
2020-03-17 05:00:00 8.7 10 Este 15 Sudeste 0 -- -- 87
2020-03-17 04:00:00 8.2 7 Este 9 Este 0 -- -- 86
2020-03-17 03:00:00 8.2 3 Nordeste 5 Norte 0 -- -- 85
2020-03-17 02:00:00 8.8 4 Norte 5 Norte 0 -- -- 83
2020-03-17 01:00:00 9 2 Noroeste 5 Oeste 0 -- -- 83
2020-03-17 00:00:00 9.2 3 Sudoeste 5 Oeste 0 -- -- 79
2020-03-16 23:00:00 9.2 2 Oeste 25 Norte 0.2 -- -- 80
2020-03-16 22:00:00 10.7 9 Norte 22 Norte 0 -- -- 62
2020-03-16 21:00:00 11.3 17 Noroeste 33 Norte 0 -- -- 57
2020-03-16 20:00:00 11.7 10 Noroeste 37 Norte 0 -- -- 55
2020-03-16 19:00:00 12.8 22 Norte 41 Norte 0 -- -- 48
2020-03-16 18:00:00 14.3 19 Norte 38 Noroeste 0 -- -- 40
2020-03-16 17:00:00 14.9 17 Noroeste 33 Noroeste 0 -- -- 38
2020-03-16 16:00:00 15.3 15 Noroeste 32 Noroeste 0 -- -- 35
2020-03-16 15:00:00 14.9 16 Noroeste 33 Noroeste 0 -- -- 36
2020-03-16 14:00:00 16.2 19 Oeste 33 Oeste 0 -- -- 34
2020-03-16 13:00:00 15.2 13 Noroeste 30 Noroeste 0 -- -- 36
2020-03-16 12:00:00 14.6 16 Noroeste 33 Noroeste 0 -- -- 38
2020-03-16 11:00:00 12.4 6 Sudoeste 21 Oeste 0 -- -- 47
2020-03-16 10:00:00 11.1 7 Noroeste 20 Noroeste 0 -- -- 50
2020-03-16 09:00:00 10 8 Norte 20 Norte 0 -- -- 54
2020-03-16 08:00:00 7.6 9 Noroeste 17 Noroeste 0 -- -- 59
2020-03-16 07:00:00 7.8 3 Sudoeste 8 Oeste 0 -- -- 57
2020-03-16 06:00:00 9 6 Norte 23 Norte 0 -- -- 54
2020-03-16 05:00:00 11 13 Norte 33 Norte 0 -- -- 46
2020-03-16 04:00:00 11.5 18 Norte 33 Norte 0 -- -- 48
2020-03-16 03:00:00 12.8 19 Norte 34 Noroeste 0 -- -- 46
2020-03-16 02:00:00 14.4 17 Noroeste 31 Norte 0 -- -- 55
2020-03-16 01:00:00 15.8 17 Noroeste 28 Noroeste 0 -- -- 61
2020-03-16 00:00:00 15.5 10 Sudoeste 21 Sudoeste 0 -- -- 75
2020-03-15 23:00:00 16.2 15 Sudoeste 24 Oeste 0 -- -- 70
2020-03-15 22:00:00 16.7 18 Sudoeste 33 Oeste 0 -- -- 68
2020-03-15 21:00:00 18.1 22 Oeste 31 Oeste 0 -- -- 61
2020-03-15 20:00:00 19.8 14 Oeste 24 Sudoeste 0 -- -- 56
2020-03-15 19:00:00 21.5 10 Sudoeste 23 Sudoeste 0 -- -- 49
2020-03-15 18:00:00 22.8 15 Oeste 25 Sudoeste 0 -- -- 45
2020-03-15 17:00:00 22.9 12 Sudoeste 24 Oeste 0 -- -- 45
2020-03-15 16:00:00 22.4 11 Sudoeste 21 Sudoeste 0 -- -- 49
2020-03-15 15:00:00 21.9 11 Sudoeste 19 Sudoeste 0 -- -- 51
2020-03-15 14:00:00 20.8 6 Sudoeste 14 Oeste 0 -- -- 58
2020-03-15 13:00:00 20 6 Sudoeste 10 Oeste 0 -- -- 60
2020-03-15 12:00:00 18.2 6 Sur 12 Este 0 -- -- 66
2020-03-15 11:00:00 16.6 5 Nordeste 10 Este 0 -- -- 72
2020-03-15 10:00:00 13.2 5 Nordeste 11 Nordeste 0 -- -- 87
2020-03-15 09:00:00 11 3 Nordeste 6 Este 0 -- -- 91
2020-03-15 08:00:00 9.5 4 Este 6 Nordeste 0 -- -- 90
2020-03-15 07:00:00 10 6 Este 9 Nordeste 0 -- -- 89
2020-03-15 06:00:00 10.2 6 Este 8 Este 0 -- -- 88
2020-03-15 05:00:00 10.9 3 Sudeste 7 Sudeste 0 -- -- 88
2020-03-15 04:00:00 10.5 8 Este 10 Este 0 -- -- 87
2020-03-15 03:00:00 11.1 4 Este 5 Este 0 -- -- 86
2020-03-15 02:00:00 11.7 2 Sudeste 4 Nordeste 0 -- -- 84
2020-03-15 01:00:00 12.6 0 Calma 9 Sur 0 -- -- 84
2020-03-15 00:00:00 12.9 2 Norte 6 Sur 0 -- -- 82
2020-03-14 23:00:00 13.7 3 Este 5 Este 0 -- -- 79
2020-03-14 22:00:00 15.2 3 Norte 8 Sur 0 -- -- 77
2020-03-14 21:00:00 16.6 6 Sur 7 Sur 0 -- -- 73
2020-03-14 20:00:00 18.4 5 Noroeste 7 Oeste 0 -- -- 66
2020-03-14 19:00:00 20.8 5 Oeste 11 Oeste 0 -- -- 57
2020-03-14 18:00:00 21.4 5 Sudoeste 12 Oeste 0 -- -- 54
2020-03-14 17:00:00 21.2 7 Oeste 15 Oeste 0 -- -- 55
2020-03-14 16:00:00 20.5 8 Oeste 16 Sudoeste 0 -- -- 59
2020-03-14 15:00:00 19.2 7 Oeste 14 Sudoeste 0 -- -- 64
2020-03-14 14:00:00 17.5 6 Noroeste 12 Noroeste 0 -- -- 72
2020-03-14 13:00:00 15.3 4 Sur 8 Sur 0 -- -- 79
2020-03-14 12:00:00 14.2 3 Norte 6 Oeste 0 -- -- 87
2020-03-14 11:00:00 13.7 0 Calma 5 Noroeste 0 -- -- 90
2020-03-14 10:00:00 13.1 5 Norte 8 Norte 0 -- -- 92
2020-03-14 09:00:00 12.6 0 Calma 5 Noroeste 0 -- -- 92
2020-03-14 08:00:00 12.3 3 Sur 9 Sudoeste 0 -- -- 92
2020-03-14 07:00:00 12.3 4 Sur 9 Sur 0 -- -- 91
2020-03-14 06:00:00 12.6 2 Sudoeste 7 Noroeste 0 -- -- 91
2020-03-14 05:00:00 12.9 2 Sudoeste 8 Oeste 0 -- -- 91
2020-03-14 04:00:00 13.1 0 Calma 10 Oeste 0 -- -- 90
2020-03-14 03:00:00 13.3 6 Sudoeste 13 Sudoeste 0 -- -- 89
2020-03-14 02:00:00 13.2 4 Sur 9 Sur 0 -- -- 87
2020-03-14 01:00:00 13.5 4 Sudoeste 9 Sudoeste 0 -- -- 86
2020-03-14 00:00:00 14.2 6 Sudoeste 17 Sudoeste 0 -- -- 84
2020-03-13 23:00:00 15.3 9 Sudoeste 14 Sudoeste 0 -- -- 80
2020-03-13 22:00:00 16.4 8 Sudoeste 14 Sudoeste 0 -- -- 76
2020-03-13 21:00:00 17.4 9 Sudoeste 14 Sudoeste 0 -- -- 73
2020-03-13 20:00:00 19.1 7 Sudoeste 14 Oeste 0 -- -- 67
2020-03-13 19:00:00 21.1 11 Oeste 23 Oeste 0 -- -- 59
2020-03-13 18:00:00 22.4 15 Oeste 23 Oeste 0 -- -- 52
2020-03-13 17:00:00 22.5 13 Sudoeste 24 Oeste 0 -- -- 51
2020-03-13 16:00:00 21.9 10 Sudoeste 23 Oeste 0 -- -- 52
2020-03-13 15:00:00 20.9 12 Sudoeste 23 Oeste 0 -- -- 55
2020-03-13 14:00:00 19.6 6 Noroeste 22 Noroeste 0 -- -- 61
2020-03-13 13:00:00 18.2 5 Noroeste 17 Noroeste 0 -- -- 64
2020-03-13 12:00:00 16.5 5 Sudoeste 15 Sudoeste 0 -- -- 67
2020-03-13 11:00:00 14.3 6 Oeste 14 Oeste 0 -- -- 78
2020-03-13 10:00:00 13.3 4 Sudoeste 9 Sudoeste 0 -- -- 87
2020-03-13 09:00:00 12.7 2 Noroeste 8 Sur 0 -- -- 92
2020-03-13 08:00:00 12.5 3 Sur 8 Oeste 0.2 -- -- 92
2020-03-13 07:00:00 12.6 4 Oeste 7 Sudoeste 0 -- -- 92
2020-03-13 06:00:00 12.8 4 Noroeste 6 Noroeste 0 -- -- 91
2020-03-13 05:00:00 13 2 Norte 10 Sudoeste 0 -- -- 90
2020-03-13 04:00:00 12.4 2 Sur 6 Sur 0 -- -- 89
2020-03-13 03:00:00 10.8 4 Nordeste 7 Norte 0 -- -- 86
2020-03-13 02:00:00 11.6 3 Este 5 Este 0 -- -- 85
2020-03-13 01:00:00 12.3 0 Calma 9 Sur 0 -- -- 79
2020-03-13 00:00:00 14.1 5 Sur 8 Sur 0 -- -- 76
2020-03-12 23:00:00 15.1 3 Sudoeste 6 Sudoeste 0 -- -- 68
2020-03-12 22:00:00 16.5 8 Oeste 18 Oeste 0 -- -- 66
2020-03-12 21:00:00 18.3 11 Sudoeste 17 Oeste 0 -- -- 59
2020-03-12 20:00:00 19.7 10 Oeste 22 Sudoeste 0 -- -- 56
2020-03-12 19:00:00 22.4 13 Sudoeste 22 Sudoeste 0 -- -- 45
2020-03-12 18:00:00 24.2 12 Sudoeste 28 Sudoeste 0 -- -- 41
2020-03-12 17:00:00 24.4 18 Sudoeste 29 Sudoeste 0 -- -- 41
2020-03-12 16:00:00 24.2 17 Sudoeste 33 Sudoeste 0 -- -- 46
2020-03-12 15:00:00 23.4 17 Sudoeste 27 Oeste 0 -- -- 46
2020-03-12 14:00:00 23.1 10 Oeste 20 Oeste 0 -- -- 42
2020-03-12 13:00:00 22.1 9 Oeste 16 Oeste 0 -- -- 42
2020-03-12 12:00:00 21 5 Oeste 9 Oeste 0 -- -- 44
2020-03-12 11:00:00 19.4 3 Noroeste 9 Nordeste 0 -- -- 50
2020-03-12 10:00:00 16.1 2 Nordeste 6 Este 0 -- -- 63
2020-03-12 09:00:00 12 2 Norte 5 Noroeste 0 -- -- 80
2020-03-12 08:00:00 11 3 Sudoeste 14 Este 0 -- -- 81
2020-03-12 07:00:00 10.4 3 Sudeste 7 Nordeste 0 -- -- 82
2020-03-12 06:00:00 10.6 3 Nordeste 11 Nordeste 0 -- -- 80
2020-03-12 05:00:00 11.5 10 Este 12 Este 0 -- -- 75
2020-03-12 04:00:00 11.6 3 Este 5 Este 0 -- -- 73
2020-03-12 03:00:00 12.7 6 Este 12 Este 0 -- -- 68
2020-03-12 02:00:00 14 8 Este 12 Sudeste 0 -- -- 57
2020-03-12 01:00:00 16.1 9 Sudeste 13 Sudeste 0 -- -- 53
2020-03-12 00:00:00 16.4 5 Sudeste 8 Sudeste 0 -- -- 52
2020-03-11 23:00:00 18.3 8 Sudoeste 17 Este 0 -- -- 49
2020-03-11 22:00:00 19.7 11 Este 18 Este 0 -- -- 51
2020-03-11 21:00:00 20.5 9 Este 14 Este 0 -- -- 49
2020-03-11 20:00:00 23.1 10 Este 16 Este 0 -- -- 43
2020-03-11 19:00:00 26.5 13 Este 19 Este 0 -- -- 33
2020-03-11 18:00:00 28.4 11 Este 23 Este 0 -- -- 32
2020-03-11 17:00:00 29.3 11 Nordeste 24 Este 0 -- -- 29
2020-03-11 16:00:00 29.2 14 Este 26 Nordeste 0 -- -- 29
2020-03-11 15:00:00 28.2 17 Este 28 Este 0 -- -- 30
2020-03-11 14:00:00 27.6 17 Este 30 Este 0 -- -- 30
2020-03-11 13:00:00 25.8 20 Este 32 Este 0 -- -- 34
2020-03-11 12:00:00 23.7 22 Este 37 Este 0 -- -- 39
2020-03-11 11:00:00 20.9 22 Este 32 Nordeste 0 -- -- 45
2020-03-11 10:00:00 16.1 17 Nordeste 28 Nordeste 0 -- -- 60
2020-03-11 09:00:00 13.4 14 Este 26 Este 0 -- -- 68
2020-03-11 08:00:00 10.4 12 Este 17 Este 0 -- -- 78
2020-03-11 07:00:00 10.3 5 Nordeste 20 Nordeste 0 -- -- 79
2020-03-11 06:00:00 10.5 12 Nordeste 18 Nordeste 0 -- -- 76
2020-03-11 05:00:00 11.3 10 Este 21 Este 0 -- -- 71
2020-03-11 04:00:00 12.2 8 Este 15 Este 0 -- -- 69
2020-03-11 03:00:00 12.6 9 Este 14 Este 0 -- -- 68
2020-03-11 02:00:00 12.7 10 Este 13 Este 0 -- -- 69
2020-03-11 01:00:00 14 10 Este 19 Este 0 -- -- 65
2020-03-11 00:00:00 14 6 Este 9 Este 0 -- -- 68